This is the latest recevied weather packets stored in our database for station/object n3uvr. If no packets are shown the sender has not sent any weather packets the latest 10 day(s).
| Time | Temp. | Humidity | Pressure | Rain* | Wind** | Luminosity | Snow |
|---|---|---|---|---|---|---|---|
| 1788066611 | 15° C | 86% | 1022.3 hPa | 0 mm | - | 0 W/m² | - |
| 1788064185 | 15.56° C | 85% | 1022.1 hPa | 0 mm | - | 0 W/m² | - |
| 1788063593 | 15.56° C | 84% | 1022.2 hPa | 0 mm | - | 0 W/m² | - |
| 1788038952 | 25.56° C | 43% | 1021.9 hPa | 0 mm | - | 90 W/m² | - |
| 1788037137 | 25.56° C | 41% | 1022.1 hPa | 0 mm | - | 102 W/m² | - |
| 1788033488 | 25.56° C | 46% | 1022.9 hPa | 0 mm | - | 118 W/m² | - |
| 1788031721 | 25.56° C | 46% | 1023.1 hPa | 0 mm | - | 125 W/m² | - |
| 1788029270 | 25.56° C | 46% | 1023.4 hPa | 0 mm | - | 135 W/m² | - |
| 1788028664 | 25.56° C | 44% | 1023.5 hPa | 0 mm | - | 135 W/m² | - |
| 1788023869 | 23.89° C | 49% | 1024 hPa | 0 mm | - | 155 W/m² | - |
| 1788022099 | 23.33° C | 49% | 1024 hPa | 0 mm | - | 160 W/m² | - |
| 1788019679 | 22.78° C | 53% | 1024.2 hPa | 0 mm | - | 156 W/m² | - |
| 1788016702 | 20.56° C | 64% | 1024.5 hPa | 0 mm | - | 670 W/m² | - |
| 1788016107 | 20° C | 68% | 1024.5 hPa | 0 mm | - | 731 W/m² | - |
| 1788014331 | 18.33° C | 74% | 1024.4 hPa | 0 mm | - | 160 W/m² | - |
| 1788011903 | 14.44° C | 89% | 1024.6 hPa | 0 mm | - | 297 W/m² | - |
| 1788009481 | 11.67° C | 87% | 1024.6 hPa | 0 mm | - | 33 W/m² | - |
| 1788008869 | 11.11° C | 87% | 1024.6 hPa | 0 mm | - | 25 W/m² | - |
| 1788008271 | 10.56° C | 87% | 1024.6 hPa | 0 mm | - | 21 W/m² | - |
| 1788007051 | 10° C | 89% | 1024.4 hPa | 0 mm | - | 11 W/m² | - |
| 1788006459 | 10° C | 89% | 1024.4 hPa | 0 mm | - | 7 W/m² | - |
| 1788002902 | 9.44° C | 89% | 1023.9 hPa | 0 mm | - | 0 W/m² | - |
| 1788002308 | 10° C | 89% | 1023.8 hPa | 0 mm | - | 0 W/m² | - |
| 1788001704 | 10° C | 89% | 1023.6 hPa | 0 mm | - | 0 W/m² | - |
| 1788000517 | 10° C | 89% | 1023.3 hPa | 0 mm | - | 0 W/m² | - |
* Rain latest hour (hover to see other rain measurements)
** Current wind speed in m/s (hover to see current wind gust speed)